Aeroporto :
LOGIN :

Iscrizione | Disclaimer

   EN    FR    IT 

 










Sommario :    VFR   VFR Marginale   IFR   IFR Intensivo   IFR Molto Intensivo
Visibilità : 
Base nubi : 
>= 8 km
>= 3000ft
5 / 8 km
1000 / 3000 ft
1500m / 5 km
500 / 1000 ft
800 / 1500m
200 / 500 ft
< 800m
< 200 ft
Simboli :   Temporali  Nebbia  Neve Forte  Precipitazioni Forti  Vento > 20 kt
SIGMETs :   Varie  Temporali  Ghiacco  Turbolenza  Onda orograficha  Ceneri Vulcaniche






- Altitudine del aeroporto : 574 ft
- Codice IATA : NDR


GMMW - Nador El Aroui

ULTIMO METAR :
  • 271400Z 03009KT 360V060 7000 SCT017 BKN026 20/15 Q1020 NOSIG

METARs OBSOLETI :
  • 271300Z 04009KT 010V070 7000 SCT017 BKN026 20/15 Q1020 NOSIG
  • 271200Z 02009KT 350V050 7000 SCT017 BKN026 21/16 Q1020 NOSIG

TAF TAF GMMW
Valido dal 27 a 12 ore il 28 a 18 ore UTC


271100Z 2712/2818 05011KT 7000 SCT012 BKN026



MetMap, La meteo Aeronautica in un colpo d'occhio ! - Copyright ORBIFLY Dicembre 2007 - Disclaimer

ORBIFLY MET'MAP TEAM :

Programmazione e sviluppo : Alexandra Zaïnal
Concezione : Baudouin d'Aumeries
Aiuto per la programmazione : Marc-Olivier Méhu
Supporto tecnico e logistico : Manuel Goepfert
Aiuto per la traduzione : Arnaldo La Scala

Contatto : metmap@orbifly.com




FONTI E CREDITI :

   NOAA